createdAt,value
2022-10-22T00:04:58.573Z,100750.28
2022-10-22T00:14:59.835Z,100744.47
2022-10-22T00:25:01.043Z,100753.53
2022-10-22T00:35:02.249Z,100754.03
2022-10-22T00:45:03.497Z,100762.59
2022-10-22T00:55:04.786Z,100757.06
2022-10-22T01:05:06.047Z,100754.03
2022-10-22T01:15:07.309Z,100753.78
2022-10-22T01:25:08.552Z,100757.06
2022-10-22T01:35:09.789Z,100752.25
2022-10-22T01:45:11.019Z,100739.44
2022-10-22T01:55:12.260Z,100742.47
2022-10-22T02:05:13.486Z,100741.94
2022-10-22T02:15:14.753Z,100755.53
2022-10-22T02:25:15.986Z,100749.00
2022-10-22T02:35:17.239Z,100752.53
2022-10-22T02:45:18.439Z,100748.97
2022-10-22T02:55:19.703Z,100766.34
2022-10-22T03:05:20.998Z,100762.06
2022-10-22T03:15:24.026Z,100770.59
2022-10-22T03:25:25.378Z,100775.91
2022-10-22T03:35:26.669Z,100776.63
2022-10-22T03:45:28.020Z,100789.75
2022-10-22T03:55:31.419Z,100799.28
2022-10-22T04:05:32.682Z,100803.31
2022-10-22T04:15:34.052Z,100812.34
2022-10-22T04:25:35.353Z,100812.34
2022-10-22T04:35:36.632Z,100818.38
2022-10-22T04:45:37.883Z,100812.59
2022-10-22T04:55:39.138Z,100821.41
2022-10-22T05:05:40.385Z,100826.69
2022-10-22T05:15:41.612Z,100818.63
2022-10-22T05:25:43.076Z,100828.94
2022-10-22T05:35:46.791Z,100831.72
2022-10-22T05:45:48.214Z,100848.56
2022-10-22T05:55:49.465Z,100856.09
2022-10-22T06:05:50.698Z,100870.69
2022-10-22T06:15:52.014Z,100884.25
2022-10-22T06:25:53.222Z,100900.28
2022-10-22T06:35:54.473Z,100900.09
2022-10-22T06:45:55.751Z,100927.28
2022-10-22T06:55:57.042Z,100947.41
2022-10-22T07:05:58.299Z,100962.72
2022-10-22T07:15:59.583Z,100976.81
2022-10-22T07:26:00.849Z,100982.38
2022-10-22T07:36:02.126Z,101004.28
2022-10-22T07:46:03.349Z,101009.59
2022-10-22T07:56:04.609Z,101019.41
2022-10-22T08:06:05.872Z,101031.50
2022-10-22T08:16:07.153Z,101035.78
2022-10-22T08:26:08.420Z,101057.44
2022-10-22T08:36:10.228Z,101068.28
2022-10-22T08:46:11.637Z,101088.94
2022-10-22T08:56:12.989Z,101105.53
2022-10-22T09:06:14.262Z,101121.66
2022-10-22T09:16:15.489Z,101131.72
2022-10-22T09:26:16.761Z,101147.53
2022-10-22T09:36:18.029Z,101154.34
2022-10-22T09:46:19.301Z,101163.88
2022-10-22T09:56:20.505Z,101170.94
2022-10-22T10:06:21.777Z,101200.13
2022-10-22T10:16:23.024Z,101214.25
2022-10-22T10:26:24.307Z,101228.09
2022-10-22T10:36:25.540Z,101223.56
2022-10-22T10:46:27.919Z,101226.63
2022-10-22T10:56:29.250Z,101232.16
2022-10-22T11:06:32.010Z,101233.66
2022-10-22T11:16:33.896Z,101238.25
2022-10-22T11:26:38.353Z,101243.03
2022-10-22T11:36:40.636Z,101217.16
2022-10-22T11:46:41.902Z,101218.66
2022-10-22T11:56:43.189Z,101226.22
2022-10-22T12:06:50.852Z,101223.22
2022-10-22T12:16:58.812Z,101232.03
2022-10-22T12:27:06.834Z,101237.06
2022-10-22T12:37:14.810Z,101239.84
2022-10-22T12:47:22.810Z,101242.09
2022-10-22T12:57:31.791Z,101230.53
2022-10-22T13:07:39.897Z,101233.31
2022-10-22T13:17:48.541Z,101240.09
2022-10-22T13:28:00.858Z,101227.03
2022-10-22T13:38:04.793Z,101227.78
2022-10-22T13:48:12.857Z,101228.81
2022-10-22T13:58:20.763Z,101225.28
2022-10-22T14:08:28.811Z,101226.78
2022-10-22T14:18:37.792Z,101232.31
2022-10-22T14:29:08.823Z,101235.84
2022-10-22T14:39:09.330Z,101237.84
2022-10-22T14:49:12.511Z,101246.94
2022-10-22T14:59:13.799Z,101259.28
2022-10-22T15:09:18.933Z,101269.59
2022-10-22T15:19:26.826Z,101276.63
2022-10-22T15:29:35.792Z,101281.16
2022-10-22T15:39:43.816Z,101280.66
2022-10-22T15:49:51.834Z,101278.38
2022-10-22T15:59:59.799Z,101264.75
2022-10-22T16:10:08.794Z,101272.28
2022-10-22T16:20:16.860Z,101276.31
2022-10-22T16:30:18.106Z,101281.31
2022-10-22T16:40:19.356Z,101286.31
2022-10-22T16:50:20.578Z,101284.53
2022-10-22T17:00:21.849Z,101293.31
2022-10-22T17:20:29.278Z,101303.09
2022-10-22T17:30:30.506Z,101307.38
2022-10-22T17:40:31.751Z,101310.63
2022-10-22T17:50:33.230Z,101309.88
2022-10-22T18:00:34.502Z,101306.09
2022-10-22T18:10:35.770Z,101324.69
2022-10-22T18:20:37.048Z,101327.47
2022-10-22T18:30:38.291Z,101334.50
2022-10-22T18:40:39.520Z,101329.75
2022-10-22T18:50:42.110Z,101337.75
2022-10-22T23:32:11.422Z,101269.66
2022-10-22T23:42:12.683Z,101242.47
2022-10-22T23:52:13.981Z,101239.44
